Time;durP1;ratioP1;P1;durP2;ratioP2;P2;SDS_P1;SDS_P2;PMS_P1;PMS_P2;Temp;Humidity;BMP_temperature;BMP_pressure;BME280_temperature;BME280_humidity;BME280_pressure;Samples;Min_cycle;Max_cycle;Signal;HPM_P1;HPM_P2
2024/05/05 00:02:24;;;;;;;17.05;10.82;;;;;;;;;;5419549;26;19996;-81
2024/05/05 00:04:50;;;;;;;17.35;11.43;;;;;;;;;;5417111;26;20424;-82
2024/05/05 00:07:16;;;;;;;17.80;10.85;;;;;;;;;;5419582;26;20424;-82
2024/05/05 00:09:43;;;;;;;11.90;8.02;;;;;;;;;;5417899;26;20003;-82
2024/05/05 00:12:11;;;;;;;11.30;8.18;;;;;;;;;;5416793;26;19992;-80
2024/05/05 00:14:37;;;;;;;13.48;8.52;;;;;;;;;;5417085;26;20432;-80
2024/05/05 00:17:03;;;;;;;11.70;8.50;;;;;;;;;;5419151;26;20061;-82
2024/05/05 00:19:29;;;;;;;14.73;8.38;;;;;;;;;;5419088;26;20017;-81
2024/05/05 00:21:55;;;;;;;13.90;8.63;;;;;;;;;;5419351;26;20064;-81
2024/05/05 00:24:21;;;;;;;16.52;8.88;;;;;;;;;;5417435;26;20007;-81
2024/05/05 00:26:47;;;;;;;15.77;8.75;;;;;;;;;;5418907;26;20007;-82
2024/05/05 00:29:13;;;;;;;15.43;8.10;;;;;;;;;;5416926;26;19996;-81
2024/05/05 00:31:39;;;;;;;12.02;7.20;;;;;;;;;;5416753;26;19999;-81
2024/05/05 00:34:05;;;;;;;11.18;7.65;;;;;;;;;;5417920;26;20068;-82
2024/05/05 00:36:31;;;;;;;15.35;7.47;;;;;;;;;;5419370;26;20090;-81
2024/05/05 00:38:57;;;;;;;12.68;7.63;;;;;;;;;;5418079;26;20006;-81
2024/05/05 00:41:24;;;;;;;10.40;7.72;;;;;;;;;;5417183;26;20003;-82
2024/05/05 00:43:50;;;;;;;10.88;6.32;;;;;;;;;;5419061;26;20074;-82
2024/05/05 00:46:16;;;;;;;11.90;5.80;;;;;;;;;;5418824;26;20014;-82
2024/05/05 00:48:42;;;;;;;14.35;6.35;;;;;;;;;;5417679;26;19991;-82
2024/05/05 00:51:09;;;;;;;11.32;6.70;;;;;;;;;;5419400;26;20101;-82
2024/05/05 00:53:35;;;;;;;12.55;5.85;;;;;;;;;;5419888;26;19995;-82
2024/05/05 00:56:02;;;;;;;9.68;6.93;;;;;;;;;;5417301;26;20011;-81
2024/05/05 00:58:29;;;;;;;9.70;6.60;;;;;;;;;;5418050;26;20072;-83
2024/05/05 01:00:55;;;;;;;11.32;7.28;;;;;;;;;;5418836;26;20035;-82
2024/05/05 01:03:21;;;;;;;8.45;6.63;;;;;;;;;;5419069;26;20444;-81
2024/05/05 01:05:48;;;;;;;10.45;5.85;;;;;;;;;;5417162;26;20041;-82
2024/05/05 01:08:14;;;;;;;9.40;6.50;;;;;;;;;;5424907;26;20011;-81
2024/05/05 01:10:40;;;;;;;11.73;5.75;;;;;;;;;;5429490;26;20003;-83
2024/05/05 01:13:06;;;;;;;10.95;5.80;;;;;;;;;;5422634;26;20007;-81
2024/05/05 01:15:32;;;;;;;8.05;5.55;;;;;;;;;;5417158;26;20006;-82
2024/05/05 01:17:58;;;;;;;8.98;5.43;;;;;;;;;;5416740;26;20015;-81
2024/05/05 01:20:24;;;;;;;7.68;5.45;;;;;;;;;;5417004;26;20041;-82
2024/05/05 01:22:50;;;;;;;7.07;5.35;;;;;;;;;;5417113;26;20032;-82
2024/05/05 01:25:16;;;;;;;10.15;5.80;;;;;;;;;;5416670;26;19995;-81
2024/05/05 01:27:42;;;;;;;12.77;5.90;;;;;;;;;;5415901;26;20004;-81
2024/05/05 01:30:09;;;;;;;11.05;5.68;;;;;;;;;;5416913;26;20061;-80
2024/05/05 01:32:38;;;;;;;8.88;5.43;;;;;;;;;;5418212;26;20003;-82
2024/05/05 01:35:04;;;;;;;10.13;5.93;;;;;;;;;;5418053;26;20007;-82
2024/05/05 01:37:30;;;;;;;9.40;6.22;;;;;;;;;;5416778;26;20018;-81
2024/05/05 01:39:56;;;;;;;11.85;6.25;;;;;;;;;;5416921;26;20038;-82
2024/05/05 01:42:22;;;;;;;10.25;5.47;;;;;;;;;;5418718;26;20003;-82
2024/05/05 01:44:48;;;;;;;13.77;6.80;;;;;;;;;;5418821;26;19995;-82
2024/05/05 01:47:14;;;;;;;10.05;6.10;;;;;;;;;;5418122;26;20018;-84
2024/05/05 01:49:40;;;;;;;12.43;6.75;;;;;;;;;;5417925;26;20000;-82
2024/05/05 01:52:06;;;;;;;13.30;6.95;;;;;;;;;;5416795;26;19991;-81
2024/05/05 01:54:32;;;;;;;15.88;6.75;;;;;;;;;;5416225;26;20082;-81
2024/05/05 01:56:58;;;;;;;14.20;6.50;;;;;;;;;;5416586;26;20010;-81
2024/05/05 01:59:24;;;;;;;14.40;6.20;;;;;;;;;;5416529;26;20014;-81
2024/05/05 02:01:51;;;;;;;11.75;6.57;;;;;;;;;;5416705;26;19991;-82
2024/05/05 02:04:17;;;;;;;11.43;6.60;;;;;;;;;;5418573;26;19995;-81
2024/05/05 02:06:43;;;;;;;8.15;6.50;;;;;;;;;;5417800;26;20437;-81
2024/05/05 02:09:09;;;;;;;13.30;6.95;;;;;;;;;;5417959;26;19996;-81
2024/05/05 02:11:35;;;;;;;11.05;6.82;;;;;;;;;;5416400;26;19992;-81
2024/05/05 02:14:01;;;;;;;12.10;6.38;;;;;;;;;;5416327;26;20061;-82
2024/05/05 02:16:27;;;;;;;11.05;6.28;;;;;;;;;;5415932;26;19999;-81
2024/05/05 02:18:53;;;;;;;12.38;6.63;;;;;;;;;;5416146;26;20007;-82
2024/05/05 02:21:19;;;;;;;12.48;6.65;;;;;;;;;;5417496;26;19991;-81
2024/05/05 02:23:45;;;;;;;16.48;7.20;;;;;;;;;;5418108;26;19995;-82
2024/05/05 02:26:11;;;;;;;12.68;6.95;;;;;;;;;;5416284;26;19995;-81
2024/05/05 02:28:37;;;;;;;15.10;7.70;;;;;;;;;;5415623;26;20031;-82
2024/05/05 02:31:04;;;;;;;16.13;7.32;;;;;;;;;;5417513;26;20001;-80
2024/05/05 02:33:30;;;;;;;16.25;7.10;;;;;;;;;;5416545;26;20022;-81
2024/05/05 02:35:56;;;;;;;9.82;7.07;;;;;;;;;;5417890;26;20007;-82
2024/05/05 02:38:22;;;;;;;9.43;7.13;;;;;;;;;;5415279;26;20020;-81
2024/05/05 02:40:48;;;;;;;9.45;7.18;;;;;;;;;;5417599;26;19995;-82
2024/05/05 02:43:14;;;;;;;13.35;7.75;;;;;;;;;;5415910;26;20369;-82
2024/05/05 02:45:40;;;;;;;14.18;8.18;;;;;;;;;;5416415;26;20071;-82
2024/05/05 02:48:07;;;;;;;15.43;8.77;;;;;;;;;;5417483;26;20010;-83
2024/05/05 02:50:33;;;;;;;17.17;9.20;;;;;;;;;;5420120;26;20004;-82
2024/05/05 02:52:59;;;;;;;16.52;9.73;;;;;;;;;;5417682;26;19992;-82
2024/05/05 02:55:25;;;;;;;14.45;9.85;;;;;;;;;;5380069;26;19996;-81
2024/05/05 02:57:51;;;;;;;16.95;10.82;;;;;;;;;;5408981;26;20016;-82
2024/05/05 03:00:17;;;;;;;16.75;10.40;;;;;;;;;;5415337;26;19996;-81
2024/05/05 03:02:43;;;;;;;16.25;10.90;;;;;;;;;;5414879;26;20437;-82
2024/05/05 03:05:09;;;;;;;18.58;10.80;;;;;;;;;;5417412;26;20457;-82
2024/05/05 03:07:36;;;;;;;15.88;10.98;;;;;;;;;;5415019;26;20008;-81
2024/05/05 03:10:02;;;;;;;19.35;11.52;;;;;;;;;;5416835;26;20000;-82
2024/05/05 03:12:28;;;;;;;16.25;12.18;;;;;;;;;;5415017;26;19995;-82
2024/05/05 03:14:55;;;;;;;20.13;12.57;;;;;;;;;;5416380;26;20456;-80
2024/05/05 03:17:21;;;;;;;20.25;11.75;;;;;;;;;;5414356;26;19999;-81
2024/05/05 03:19:47;;;;;;;20.15;11.52;;;;;;;;;;5414865;26;20447;-81
2024/05/05 03:22:13;;;;;;;17.75;11.70;;;;;;;;;;5416541;26;20084;-82
2024/05/05 03:24:40;;;;;;;24.73;13.15;;;;;;;;;;5415149;26;20011;-80
2024/05/05 03:27:07;;;;;;;22.73;13.00;;;;;;;;;;5414815;26;20032;-82
2024/05/05 03:29:33;;;;;;;17.67;12.52;;;;;;;;;;5416292;26;20010;-81
2024/05/05 03:31:59;;;;;;;21.08;12.32;;;;;;;;;;5416255;26;20035;-80
2024/05/05 03:34:25;;;;;;;24.55;13.25;;;;;;;;;;5414503;26;20024;-80
2024/05/05 03:36:51;;;;;;;23.13;13.77;;;;;;;;;;5416078;26;19999;-79
2024/05/05 03:39:17;;;;;;;27.17;14.02;;;;;;;;;;5413590;26;20008;-79
2024/05/05 03:41:43;;;;;;;22.88;12.90;;;;;;;;;;5413428;26;19996;-79
2024/05/05 03:44:09;;;;;;;24.83;13.77;;;;;;;;;;5412833;26;20000;-81
2024/05/05 03:46:35;;;;;;;20.50;13.40;;;;;;;;;;5412608;26;19999;-79
2024/05/05 03:49:01;;;;;;;26.83;14.70;;;;;;;;;;5416446;26;19999;-81
2024/05/05 03:51:27;;;;;;;23.65;13.35;;;;;;;;;;5417775;26;19996;-81
2024/05/05 03:53:53;;;;;;;22.25;13.60;;;;;;;;;;5417816;26;20077;-80
2024/05/05 03:56:19;;;;;;;20.77;13.25;;;;;;;;;;5419886;26;20009;-80
2024/05/05 03:58:45;;;;;;;23.08;13.70;;;;;;;;;;5418288;26;20008;-80
2024/05/05 04:01:11;;;;;;;20.45;14.15;;;;;;;;;;5418283;26;20005;-80
2024/05/05 04:03:37;;;;;;;24.42;13.80;;;;;;;;;;5418187;26;20022;-80
2024/05/05 04:06:03;;;;;;;22.98;13.40;;;;;;;;;;5420479;26;20145;-80
2024/05/05 04:08:30;;;;;;;21.60;13.73;;;;;;;;;;5417634;26;20344;-80
2024/05/05 04:10:56;;;;;;;22.02;13.55;;;;;;;;;;5418679;26;20002;-82
2024/05/05 04:13:22;;;;;;;18.75;12.73;;;;;;;;;;5418171;26;20003;-82
2024/05/05 04:15:48;;;;;;;23.80;13.45;;;;;;;;;;5418402;26;19999;-82
2024/05/05 04:18:14;;;;;;;23.60;14.18;;;;;;;;;;5418100;26;20505;-81
2024/05/05 04:20:40;;;;;;;20.30;12.60;;;;;;;;;;5419586;26;19999;-81
2024/05/05 04:23:08;;;;;;;21.70;12.98;;;;;;;;;;5419275;26;19999;-81
2024/05/05 04:25:34;;;;;;;24.67;13.90;;;;;;;;;;5421781;26;19995;-81
2024/05/05 04:28:00;;;;;;;19.67;12.52;;;;;;;;;;5420531;26;20337;-82
2024/05/05 04:30:26;;;;;;;18.17;12.48;;;;;;;;;;5421206;26;20440;-82
2024/05/05 04:32:52;;;;;;;21.33;13.48;;;;;;;;;;5420025;26;20000;-81
2024/05/05 04:35:19;;;;;;;25.00;13.90;;;;;;;;;;5421678;26;20436;-82
2024/05/05 04:37:45;;;;;;;23.42;14.25;;;;;;;;;;5420060;26;20361;-81
2024/05/05 04:40:11;;;;;;;19.92;13.52;;;;;;;;;;5418769;26;19996;-82
2024/05/05 04:42:37;;;;;;;20.40;13.60;;;;;;;;;;5418259;26;20011;-83
2024/05/05 04:45:03;;;;;;;21.95;14.82;;;;;;;;;;5418436;26;20057;-82
2024/05/05 04:47:29;;;;;;;25.42;16.35;;;;;;;;;;5418380;26;20444;-82
2024/05/05 04:49:55;;;;;;;24.38;15.15;;;;;;;;;;5420178;26;20440;-81
2024/05/05 04:52:21;;;;;;;26.10;16.55;;;;;;;;;;5418324;26;20024;-81
2024/05/05 04:54:47;;;;;;;24.35;14.63;;;;;;;;;;5424723;26;20014;-80
2024/05/05 04:57:13;;;;;;;24.88;15.43;;;;;;;;;;5431318;26;20007;-79
2024/05/05 04:59:39;;;;;;;24.95;15.02;;;;;;;;;;5425760;26;19995;-79
2024/05/05 05:02:05;;;;;;;27.15;15.68;;;;;;;;;;5419441;26;20003;-80
2024/05/05 05:04:31;;;;;;;27.73;14.55;;;;;;;;;;5418227;26;20012;-81
2024/05/05 05:07:01;;;;;;;21.98;14.20;;;;;;;;;;5416345;26;20491;-81
2024/05/05 05:09:28;;;;;;;25.23;14.52;;;;;;;;;;5417325;26;19996;-82
2024/05/05 05:11:55;;;;;;;25.42;14.70;;;;;;;;;;5417342;26;19991;-83
2024/05/05 05:14:21;;;;;;;22.73;14.32;;;;;;;;;;5417280;26;20023;-81
2024/05/05 05:16:47;;;;;;;24.50;15.13;;;;;;;;;;5417578;26;19992;-79
2024/05/05 05:19:13;;;;;;;28.40;15.00;;;;;;;;;;5417046;26;20011;-79
2024/05/05 05:21:39;;;;;;;28.67;15.38;;;;;;;;;;5417697;26;20007;-82
2024/05/05 05:24:05;;;;;;;24.02;14.13;;;;;;;;;;5416837;26;20035;-81
2024/05/05 05:26:31;;;;;;;23.48;14.40;;;;;;;;;;5416993;26;20005;-81
2024/05/05 05:28:57;;;;;;;23.35;13.60;;;;;;;;;;5417305;26;20000;-82
2024/05/05 05:31:24;;;;;;;19.33;13.63;;;;;;;;;;5416930;26;20010;-81
2024/05/05 05:33:50;;;;;;;26.30;14.75;;;;;;;;;;5418467;26;20004;-82
2024/05/05 05:36:16;;;;;;;21.85;13.57;;;;;;;;;;5416927;26;19991;-79
2024/05/05 05:38:42;;;;;;;27.58;14.60;;;;;;;;;;5418740;26;20040;-80
2024/05/05 05:41:08;;;;;;;22.48;13.02;;;;;;;;;;5416732;26;20065;-80
2024/05/05 05:43:34;;;;;;;21.55;13.25;;;;;;;;;;5416169;26;20386;-80
2024/05/05 05:46:00;;;;;;;20.65;13.45;;;;;;;;;;5418782;26;19995;-79
2024/05/05 05:48:26;;;;;;;22.25;12.57;;;;;;;;;;5418272;26;20007;-78
2024/05/05 05:50:52;;;;;;;20.13;13.38;;;;;;;;;;5417777;26;19996;-81
2024/05/05 05:53:18;;;;;;;20.33;12.63;;;;;;;;;;5417154;26;20023;-81
2024/05/05 05:55:44;;;;;;;19.67;13.15;;;;;;;;;;5418783;26;20007;-81
2024/05/05 05:58:10;;;;;;;22.00;13.23;;;;;;;;;;5416612;26;20015;-80
2024/05/05 06:00:36;;;;;;;20.88;13.23;;;;;;;;;;5416398;26;20011;-79
2024/05/05 06:03:02;;;;;;;25.05;13.13;;;;;;;;;;5415113;26;20004;-80
2024/05/05 06:05:28;;;;;;;17.73;11.38;;;;;;;;;;5418082;26;20018;-80
2024/05/05 06:07:54;;;;;;;22.65;11.60;;;;;;;;;;5416320;26;20348;-80
2024/05/05 06:10:21;;;;;;;21.00;10.75;;;;;;;;;;5416536;26;20006;-80
2024/05/05 06:12:47;;;;;;;18.52;11.38;;;;;;;;;;5417331;26;20463;-84
2024/05/05 06:15:13;;;;;;;17.77;11.27;;;;;;;;;;5419713;26;19995;-83
2024/05/05 06:17:39;;;;;;;18.92;10.45;;;;;;;;;;5419164;26;20000;-83
2024/05/05 06:20:05;;;;;;;16.15;10.10;;;;;;;;;;5417010;26;19995;-83
2024/05/05 06:22:31;;;;;;;20.17;9.93;;;;;;;;;;5417034;26;20076;-84
2024/05/05 06:25:00;;;;;;;15.55;10.32;;;;;;;;;;5416926;26;19996;-84
2024/05/05 06:27:27;;;;;;;19.70;10.63;;;;;;;;;;5417222;26;20378;-83
2024/05/05 06:29:53;;;;;;;17.85;10.60;;;;;;;;;;5417505;26;20094;-84
2024/05/05 06:32:19;;;;;;;15.00;9.60;;;;;;;;;;5416916;26;20020;-83
2024/05/05 06:34:47;;;;;;;15.43;9.98;;;;;;;;;;5416034;26;20008;-82
2024/05/05 06:37:13;;;;;;;13.93;8.90;;;;;;;;;;5417672;26;20006;-84
2024/05/05 06:39:39;;;;;;;13.80;9.07;;;;;;;;;;5416813;26;20007;-83
2024/05/05 06:42:05;;;;;;;13.80;8.63;;;;;;;;;;5418430;26;19999;-82
2024/05/05 06:44:31;;;;;;;13.95;7.78;;;;;;;;;;5416719;26;20028;-81
2024/05/05 06:46:57;;;;;;;15.40;8.43;;;;;;;;;;5416633;26;20015;-83
2024/05/05 06:49:23;;;;;;;13.48;6.97;;;;;;;;;;5417847;26;20011;-82
2024/05/05 06:51:50;;;;;;;12.63;6.95;;;;;;;;;;5416617;26;20002;-82
2024/05/05 06:54:16;;;;;;;15.90;7.05;;;;;;;;;;5416913;26;20156;-84
2024/05/05 06:56:43;;;;;;;11.63;7.00;;;;;;;;;;5416372;26;20002;-82
2024/05/05 06:59:09;;;;;;;12.85;6.32;;;;;;;;;;5417024;26;20459;-83
2024/05/05 07:01:36;;;;;;;9.20;6.05;;;;;;;;;;5418576;26;20317;-82
2024/05/05 07:04:02;;;;;;;13.57;7.15;;;;;;;;;;5416549;26;19995;-81
2024/05/05 07:06:28;;;;;;;8.60;5.85;;;;;;;;;;5414957;26;19996;-82
2024/05/05 07:08:54;;;;;;;10.50;5.72;;;;;;;;;;5415397;26;19995;-82
2024/05/05 07:11:20;;;;;;;11.98;6.00;;;;;;;;;;5414678;26;19995;-83
2024/05/05 07:13:46;;;;;;;9.80;5.80;;;;;;;;;;5415368;26;20003;-82
2024/05/05 07:16:12;;;;;;;11.32;5.53;;;;;;;;;;5415193;26;20028;-81
2024/05/05 07:18:38;;;;;;;11.18;5.78;;;;;;;;;;5416816;26;20043;-83
2024/05/05 07:21:04;;;;;;;9.90;5.10;;;;;;;;;;5415784;26;19996;-80
2024/05/05 07:23:30;;;;;;;11.75;5.22;;;;;;;;;;5418355;26;20003;-81
2024/05/05 07:25:56;;;;;;;9.80;5.80;;;;;;;;;;5420389;26;19996;-81
2024/05/05 07:28:22;;;;;;;14.35;5.40;;;;;;;;;;5421411;26;20003;-83
2024/05/05 07:30:48;;;;;;;9.90;5.60;;;;;;;;;;5420036;26;20003;-83
2024/05/05 07:33:14;;;;;;;11.07;5.50;;;;;;;;;;5420451;26;20015;-81
2024/05/05 07:35:41;;;;;;;8.23;4.80;;;;;;;;;;5422790;26;19992;-80
2024/05/05 07:38:07;;;;;;;8.63;5.63;;;;;;;;;;5419748;26;20037;-82
2024/05/05 07:40:37;;;;;;;10.13;5.35;;;;;;;;;;5432647;26;20007;-84
2024/05/05 07:43:03;;;;;;;12.52;5.00;;;;;;;;;;5430434;26;20012;-83
2024/05/05 07:45:30;;;;;;;7.68;4.72;;;;;;;;;;5427603;26;20000;-84
2024/05/05 07:48:03;;;;;;;8.90;4.38;;;;;;;;;;5463308;26;20002;-85
2024/05/05 07:50:31;;;;;;;8.70;4.30;;;;;;;;;;5462973;26;19990;-83
2024/05/05 07:53:05;;;;;;;7.97;4.57;;;;;;;;;;5462653;26;19999;-87
2024/05/05 07:55:32;;;;;;;9.60;4.47;;;;;;;;;;5414943;26;20334;-83
2024/05/05 07:57:59;;;;;;;8.75;3.67;;;;;;;;;;5428320;26;20445;-87
2024/05/05 08:00:25;;;;;;;11.20;4.53;;;;;;;;;;5430001;26;20004;-89
2024/05/05 08:02:57;;;;;;;8.25;3.85;;;;;;;;;;5435838;26;20011;-87
2024/05/05 08:05:29;;;;;;;6.80;4.20;;;;;;;;;;5436851;26;20027;-83
2024/05/05 08:08:17;;;;;;;10.35;4.15;;;;;;;;;;5438295;26;20003;-84
2024/05/05 08:11:21;;;;;;;7.68;3.58;;;;;;;;;;5441832;26;20024;-87
2024/05/05 08:14:28;;;;;;;7.95;3.90;;;;;;;;;;5437651;26;20007;-84
2024/05/05 08:17:10;;;;;;;7.55;4.03;;;;;;;;;;5403372;26;20003;-84
2024/05/05 08:19:59;;;;;;;6.85;3.72;;;;;;;;;;5404708;26;20006;-83
2024/05/05 08:22:25;;;;;;;7.05;3.80;;;;;;;;;;5437782;26;20010;-90
2024/05/05 08:24:51;;;;;;;4.97;3.00;;;;;;;;;;5434689;26;19996;-88
2024/05/05 08:27:18;;;;;;;8.30;3.33;;;;;;;;;;5432834;26;20003;-90
2024/05/05 08:29:44;;;;;;;6.18;2.63;;;;;;;;;;5435878;26;20014;-87
2024/05/05 08:32:10;;;;;;;7.32;3.30;;;;;;;;;;5400535;26;20018;-87
2024/05/05 08:34:36;;;;;;;6.30;3.30;;;;;;;;;;5433231;26;20022;-88
2024/05/05 08:37:02;;;;;;;7.93;3.95;;;;;;;;;;5433233;26;20008;-87
2024/05/05 08:39:30;;;;;;;4.75;2.85;;;;;;;;;;5433753;26;19995;-90
2024/05/05 08:42:07;;;;;;;5.28;2.65;;;;;;;;;;5439714;26;19999;-87
2024/05/05 08:44:41;;;;;;;5.22;2.70;;;;;;;;;;5406544;26;19993;-88
2024/05/05 08:47:32;;;;;;;3.53;2.78;;;;;;;;;;5400232;26;19996;-87
2024/05/05 08:50:00;;;;;;;5.35;2.80;;;;;;;;;;5409857;26;20031;-88
2024/05/05 08:52:38;;;;;;;4.93;2.63;;;;;;;;;;5431973;26;19988;-87
2024/05/05 08:55:06;;;;;;;8.10;2.95;;;;;;;;;;5396211;26;20011;-90
2024/05/05 08:57:38;;;;;;;6.45;2.70;;;;;;;;;;5395681;26;20030;-89
2024/05/05 09:00:06;;;;;;;5.63;2.50;;;;;;;;;;5396438;26;20069;-88
2024/05/05 09:02:33;;;;;;;4.95;2.47;;;;;;;;;;5399917;26;20000;-87
2024/05/05 09:05:02;;;;;;;3.92;2.10;;;;;;;;;;5436019;26;19998;-85
2024/05/05 09:07:29;;;;;;;5.70;2.38;;;;;;;;;;5424157;26;20000;-86
2024/05/05 09:10:01;;;;;;;3.55;2.13;;;;;;;;;;5420287;26;20000;-84
2024/05/05 09:12:27;;;;;;;4.57;2.13;;;;;;;;;;5420410;26;19997;-84
2024/05/05 09:14:53;;;;;;;6.20;2.35;;;;;;;;;;5419734;26;20000;-83
2024/05/05 09:17:22;;;;;;;3.78;1.67;;;;;;;;;;5418796;26;19995;-83
2024/05/05 09:19:49;;;;;;;3.90;1.98;;;;;;;;;;5418520;26;20411;-83
2024/05/05 09:22:18;;;;;;;3.47;1.92;;;;;;;;;;5419327;26;20011;-83
2024/05/05 09:24:49;;;;;;;4.32;2.05;;;;;;;;;;5420518;26;19999;-83
2024/05/05 09:27:15;;;;;;;3.92;1.98;;;;;;;;;;5421035;26;19999;-83
2024/05/05 09:29:51;;;;;;;4.15;1.92;;;;;;;;;;5421106;26;20010;-84
2024/05/05 09:32:18;;;;;;;7.05;2.10;;;;;;;;;;5420411;26;20424;-83
2024/05/05 09:34:45;;;;;;;3.28;1.90;;;;;;;;;;5420543;26;20006;-84
2024/05/05 09:37:13;;;;;;;4.50;1.85;;;;;;;;;;5391529;26;20003;-84
2024/05/05 09:39:39;;;;;;;5.07;1.95;;;;;;;;;;5418722;26;19995;-83
2024/05/05 09:42:05;;;;;;;7.32;2.08;;;;;;;;;;5419076;26;20110;-82
2024/05/05 09:44:31;;;;;;;3.05;1.90;;;;;;;;;;5417620;26;20436;-81
2024/05/05 09:46:57;;;;;;;9.27;2.42;;;;;;;;;;5416163;26;19991;-83
2024/05/05 09:49:24;;;;;;;6.88;2.08;;;;;;;;;;5417059;26;19995;-84
2024/05/05 09:51:56;;;;;;;3.78;1.77;;;;;;;;;;5419011;26;20002;-84
2024/05/05 09:54:33;;;;;;;4.18;1.60;;;;;;;;;;5416860;26;20467;-83
2024/05/05 09:57:11;;;;;;;5.32;1.60;;;;;;;;;;5420279;26;20073;-84
2024/05/05 09:59:37;;;;;;;3.20;1.55;;;;;;;;;;5417321;26;20006;-82
2024/05/05 10:02:04;;;;;;;2.65;1.65;;;;;;;;;;5417465;26;20006;-82
2024/05/05 10:04:33;;;;;;;3.90;2.00;;;;;;;;;;5419724;26;20068;-83
2024/05/05 10:06:59;;;;;;;2.03;1.75;;;;;;;;;;5417886;26;20397;-82
2024/05/05 10:09:32;;;;;;;2.33;1.70;;;;;;;;;;5419132;26;20077;-83
2024/05/05 10:12:02;;;;;;;3.65;1.50;;;;;;;;;;5419349;26;20068;-83
2024/05/05 10:14:28;;;;;;;3.65;1.67;;;;;;;;;;5417825;26;20018;-83
2024/05/05 10:16:54;;;;;;;4.75;1.70;;;;;;;;;;5417486;26;20002;-83
2024/05/05 10:19:24;;;;;;;2.90;1.38;;;;;;;;;;5418945;26;19992;-83
2024/05/05 10:21:51;;;;;;;2.33;1.20;;;;;;;;;;5416992;26;19996;-83
2024/05/05 10:24:17;;;;;;;3.08;1.50;;;;;;;;;;5418366;26;20452;-85
2024/05/05 10:26:49;;;;;;;3.50;1.38;;;;;;;;;;5418977;26;20000;-84
2024/05/05 10:29:21;;;;;;;4.65;1.52;;;;;;;;;;5418925;26;19993;-84
2024/05/05 10:31:48;;;;;;;2.58;1.35;;;;;;;;;;5417337;26;19996;-83
2024/05/05 10:34:14;;;;;;;4.20;1.30;;;;;;;;;;5420176;26;19996;-83
2024/05/05 10:36:41;;;;;;;4.47;1.60;;;;;;;;;;5418769;26;20031;-81
2024/05/05 10:39:10;;;;;;;8.10;1.63;;;;;;;;;;5417089;26;20065;-82
2024/05/05 10:41:36;;;;;;;3.47;1.60;;;;;;;;;;5417096;26;20006;-81
2024/05/05 10:44:03;;;;;;;2.17;1.60;;;;;;;;;;5419650;26;20072;-84
2024/05/05 10:46:29;;;;;;;4.78;1.73;;;;;;;;;;5418428;26;19992;-83
2024/05/05 10:48:56;;;;;;;3.45;1.73;;;;;;;;;;5415837;26;20023;-83
2024/05/05 10:51:26;;;;;;;1.70;1.58;;;;;;;;;;5418024;26;20003;-81
2024/05/05 10:53:53;;;;;;;2.25;1.90;;;;;;;;;;5421004;26;20003;-85
2024/05/05 10:56:19;;;;;;;4.18;1.55;;;;;;;;;;5418506;26;20324;-83
2024/05/05 10:58:46;;;;;;;2.88;1.60;;;;;;;;;;5420937;26;19991;-84
2024/05/05 11:01:12;;;;;;;2.45;1.75;;;;;;;;;;5424056;26;20007;-85
2024/05/05 11:03:38;;;;;;;2.13;1.63;;;;;;;;;;5424966;26;19992;-83
2024/05/05 11:06:11;;;;;;;2.63;1.80;;;;;;;;;;5422529;26;19995;-83
2024/05/05 11:08:38;;;;;;;2.92;1.63;;;;;;;;;;5423268;26;19992;-83
2024/05/05 11:11:04;;;;;;;2.83;2.03;;;;;;;;;;5422135;26;20030;-84
2024/05/05 11:13:30;;;;;;;8.23;2.35;;;;;;;;;;5422435;26;19995;-84
2024/05/05 11:16:06;;;;;;;3.70;2.00;;;;;;;;;;5422518;26;20549;-84
2024/05/05 11:18:39;;;;;;;5.38;2.40;;;;;;;;;;5423946;26;19991;-84
2024/05/05 11:21:06;;;;;;;2.25;2.00;;;;;;;;;;5421457;26;19991;-84
2024/05/05 11:23:32;;;;;;;4.63;2.42;;;;;;;;;;5422049;26;19995;-83
2024/05/05 11:25:58;;;;;;;4.25;2.40;;;;;;;;;;5420035;26;20476;-83
2024/05/05 11:28:26;;;;;;;4.60;2.47;;;;;;;;;;5419707;26;20024;-82
2024/05/05 11:30:52;;;;;;;2.58;2.00;;;;;;;;;;5419585;26;20011;-82
2024/05/05 11:33:18;;;;;;;5.18;2.97;;;;;;;;;;5419778;26;20027;-83
2024/05/05 11:35:45;;;;;;;3.20;2.22;;;;;;;;;;5420072;26;20417;-82
2024/05/05 11:38:11;;;;;;;5.75;2.50;;;;;;;;;;5419998;26;20049;-83
2024/05/05 11:40:39;;;;;;;3.50;2.53;;;;;;;;;;5419472;26;20002;-81
2024/05/05 11:43:05;;;;;;;8.57;2.75;;;;;;;;;;5419422;26;19999;-82
2024/05/05 11:45:31;;;;;;;4.50;2.60;;;;;;;;;;5420881;26;20063;-82
2024/05/05 11:48:16;;;;;;;5.53;2.63;;;;;;;;;;5422381;26;20053;-84
2024/05/05 11:51:01;;;;;;;3.50;2.30;;;;;;;;;;5420458;26;20007;-84
2024/05/05 11:53:28;;;;;;;3.65;2.13;;;;;;;;;;5419605;26;20450;-85
2024/05/05 11:56:13;;;;;;;6.22;2.95;;;;;;;;;;5419068;26;20402;-84
2024/05/05 11:58:39;;;;;;;6.05;2.60;;;;;;;;;;5421289;26;19995;-83
2024/05/05 12:01:20;;;;;;;6.03;2.40;;;;;;;;;;5421164;26;20014;-82
2024/05/05 12:03:46;;;;;;;4.20;2.92;;;;;;;;;;5418981;26;20076;-82
2024/05/05 12:06:12;;;;;;;5.50;2.70;;;;;;;;;;5418900;26;19999;-84
2024/05/05 12:08:42;;;;;;;5.38;2.85;;;;;;;;;;5421549;26;20006;-83
2024/05/05 12:11:08;;;;;;;5.03;2.50;;;;;;;;;;5418712;26;19995;-82
2024/05/05 12:13:34;;;;;;;4.30;2.70;;;;;;;;;;5420419;26;20010;-83
2024/05/05 12:16:19;;;;;;;4.30;2.50;;;;;;;;;;5419003;26;20003;-83
2024/05/05 12:18:58;;;;;;;5.93;2.70;;;;;;;;;;5419532;26;20010;-83
2024/05/05 12:21:24;;;;;;;3.47;2.50;;;;;;;;;;5418862;26;20032;-83
2024/05/05 12:23:51;;;;;;;3.17;2.50;;;;;;;;;;5420134;26;20004;-83
2024/05/05 12:26:18;;;;;;;6.28;2.97;;;;;;;;;;5423240;26;20024;-86
2024/05/05 12:28:52;;;;;;;3.63;2.50;;;;;;;;;;5434015;26;20016;-82
2024/05/05 12:31:18;;;;;;;3.35;2.60;;;;;;;;;;5435328;26;20072;-84
2024/05/05 12:33:47;;;;;;;3.85;2.60;;;;;;;;;;5432400;26;19995;-86
2024/05/05 12:36:36;;;;;;;3.38;2.80;;;;;;;;;;5428037;26;19988;-83
2024/05/05 12:39:19;;;;;;;4.65;2.65;;;;;;;;;;5426227;26;20086;-84
2024/05/05 12:41:45;;;;;;;2.97;2.33;;;;;;;;;;5426834;26;20484;-85
2024/05/05 12:44:12;;;;;;;5.05;2.70;;;;;;;;;;5429428;26;19999;-82
2024/05/05 12:46:38;;;;;;;4.68;2.75;;;;;;;;;;5426882;26;19999;-84
2024/05/05 12:49:10;;;;;;;10.55;2.70;;;;;;;;;;5422000;26;20006;-85
2024/05/05 12:51:36;;;;;;;4.63;2.75;;;;;;;;;;5424379;26;20074;-84
2024/05/05 12:54:03;;;;;;;4.68;2.90;;;;;;;;;;5427360;26;19999;-84
2024/05/05 12:56:29;;;;;;;5.38;3.08;;;;;;;;;;5396137;26;20002;-84
2024/05/05 12:58:56;;;;;;;4.13;2.65;;;;;;;;;;5429624;26;20009;-85
2024/05/05 13:01:23;;;;;;;4.10;2.90;;;;;;;;;;5430761;26;20006;-83
2024/05/05 13:03:51;;;;;;;4.32;2.58;;;;;;;;;;5428754;26;20049;-84
2024/05/05 13:06:18;;;;;;;5.72;2.63;;;;;;;;;;5431569;26;20050;-85
2024/05/05 13:08:44;;;;;;;4.53;2.67;;;;;;;;;;5429382;26;20102;-85
2024/05/05 13:11:11;;;;;;;3.70;2.70;;;;;;;;;;5421810;26;20022;-84
2024/05/05 13:13:42;;;;;;;4.10;2.80;;;;;;;;;;5426638;26;19995;-85
2024/05/05 13:16:08;;;;;;;4.38;2.70;;;;;;;;;;5399681;26;19992;-86
2024/05/05 13:18:51;;;;;;;3.42;3.10;;;;;;;;;;5401499;26;20014;-85
2024/05/05 13:21:17;;;;;;;4.63;3.30;;;;;;;;;;5430917;26;20320;-85
2024/05/05 13:23:43;;;;;;;4.60;2.88;;;;;;;;;;5424716;26;20003;-83
2024/05/05 13:26:17;;;;;;;4.68;2.90;;;;;;;;;;5425256;26;20002;-85
2024/05/05 13:28:47;;;;;;;6.35;2.60;;;;;;;;;;5422868;26;19995;-85
2024/05/05 13:31:13;;;;;;;5.32;2.92;;;;;;;;;;5423620;26;19998;-84
2024/05/05 13:33:39;;;;;;;5.53;3.47;;;;;;;;;;5419440;26;20332;-84
2024/05/05 13:36:08;;;;;;;3.97;2.83;;;;;;;;;;5420499;26;20000;-83
2024/05/05 13:38:34;;;;;;;4.22;2.67;;;;;;;;;;5421725;26;19991;-83
2024/05/05 13:41:01;;;;;;;4.97;2.90;;;;;;;;;;5421832;26;20007;-82
2024/05/05 13:43:30;;;;;;;6.97;3.45;;;;;;;;;;5422850;26;20017;-84
2024/05/05 13:45:56;;;;;;;4.53;2.83;;;;;;;;;;5420372;26;20325;-83
2024/05/05 13:48:22;;;;;;;3.45;2.60;;;;;;;;;;5419855;26;19992;-82
2024/05/05 13:50:48;;;;;;;4.38;3.08;;;;;;;;;;5422170;26;20008;-83
2024/05/05 13:53:14;;;;;;;4.60;3.00;;;;;;;;;;5419716;26;19992;-82
2024/05/05 13:55:40;;;;;;;5.15;2.80;;;;;;;;;;5424954;26;20007;-83
2024/05/05 13:58:06;;;;;;;3.67;2.70;;;;;;;;;;5420071;26;19996;-86
2024/05/05 14:00:32;;;;;;;4.47;3.42;;;;;;;;;;5422020;26;19995;-84
2024/05/05 14:02:58;;;;;;;2.88;2.47;;;;;;;;;;5422503;26;19995;-83
2024/05/05 14:05:24;;;;;;;3.83;2.75;;;;;;;;;;5421104;26;20018;-83
2024/05/05 14:07:50;;;;;;;3.20;2.67;;;;;;;;;;5418298;26;19998;-82
2024/05/05 14:10:16;;;;;;;4.38;2.67;;;;;;;;;;5419424;26;20006;-84
2024/05/05 14:12:42;;;;;;;5.43;2.55;;;;;;;;;;5420756;26;19991;-85
2024/05/05 14:15:09;;;;;;;3.95;3.22;;;;;;;;;;5421706;26;20344;-82
2024/05/05 14:17:35;;;;;;;3.03;2.65;;;;;;;;;;5417810;26;19991;-85
2024/05/05 14:20:01;;;;;;;3.72;2.67;;;;;;;;;;5418598;26;20132;-84
2024/05/05 14:22:27;;;;;;;4.35;3.10;;;;;;;;;;5420672;26;19996;-84
2024/05/05 14:24:53;;;;;;;3.58;2.88;;;;;;;;;;5418309;26;20324;-84
2024/05/05 14:27:19;;;;;;;6.20;3.22;;;;;;;;;;5418850;26;20313;-84
2024/05/05 14:29:45;;;;;;;6.40;3.60;;;;;;;;;;5421596;26;20007;-83
2024/05/05 14:32:11;;;;;;;5.88;3.42;;;;;;;;;;5419386;26;19996;-82
2024/05/05 14:34:37;;;;;;;3.88;2.88;;;;;;;;;;5417289;26;20010;-82
2024/05/05 14:37:03;;;;;;;5.53;2.60;;;;;;;;;;5416167;26;20006;-83